createdAt,value
2018-05-23T00:01:28.286Z,19
2018-05-23T00:11:27.068Z,20
2018-05-23T00:21:27.025Z,19
2018-05-23T00:31:30.084Z,19
2018-05-23T00:41:27.378Z,19
2018-05-23T00:51:27.551Z,18
2018-05-23T01:01:26.552Z,18
2018-05-23T01:11:27.297Z,18
2018-05-23T01:21:29.833Z,18
2018-05-23T01:31:28.715Z,18
2018-05-23T01:41:29.839Z,18
2018-05-23T01:51:27.666Z,18
2018-05-23T02:01:27.433Z,18
2018-05-23T02:11:27.642Z,18
2018-05-23T02:21:28.144Z,18
2018-05-23T02:31:27.014Z,18
2018-05-23T02:41:27.802Z,18
2018-05-23T02:51:27.677Z,18
2018-05-23T03:01:28.419Z,18
2018-05-23T03:11:27.500Z,18
2018-05-23T03:21:27.636Z,18
2018-05-23T03:31:26.475Z,18
2018-05-23T03:41:27.574Z,18
2018-05-23T03:51:26.742Z,18
2018-05-23T04:01:27.749Z,18
2018-05-23T04:11:27.734Z,18
2018-05-23T04:21:27.719Z,18
2018-05-23T04:31:27.744Z,18
2018-05-23T04:41:27.802Z,18
2018-05-23T04:51:26.704Z,19
2018-05-23T05:04:09.343Z,18
2018-05-23T05:11:27.182Z,18
2018-05-23T05:21:27.632Z,18
2018-05-23T05:31:27.449Z,18
2018-05-23T05:41:27.607Z,18
2018-05-23T05:51:28.067Z,18
2018-05-23T06:01:30.256Z,19
2018-05-23T06:11:28.471Z,19
2018-05-23T06:21:27.416Z,19
2018-05-23T06:31:29.728Z,19
2018-05-23T06:41:27.193Z,20
2018-05-23T06:51:27.251Z,20
2018-05-23T07:01:27.451Z,20
2018-05-23T07:11:27.836Z,20
2018-05-23T07:21:28.631Z,20
2018-05-23T07:31:27.571Z,20
2018-05-23T07:41:26.398Z,20
2018-05-23T07:51:27.493Z,20
2018-05-23T08:01:26.244Z,20
2018-05-23T08:11:26.788Z,20
2018-05-23T08:21:27.836Z,20
2018-05-23T08:31:26.703Z,21
2018-05-23T08:41:26.742Z,21
2018-05-23T08:51:27.876Z,21
2018-05-23T09:01:27.013Z,21
2018-05-23T09:11:27.283Z,21
2018-05-23T09:21:27.147Z,21
2018-05-23T09:31:28.613Z,22
2018-05-23T09:41:28.993Z,22
2018-05-23T09:51:26.863Z,22
2018-05-23T10:01:27.100Z,22
2018-05-23T10:11:27.444Z,22
2018-05-23T10:21:27.573Z,22
2018-05-23T10:31:27.495Z,22
2018-05-23T10:41:26.262Z,22
2018-05-23T10:51:26.985Z,23
2018-05-23T11:01:28.157Z,23
2018-05-23T11:11:27.014Z,23
2018-05-23T11:21:26.141Z,23
2018-05-23T11:31:27.924Z,23
2018-05-23T11:41:27.480Z,23
2018-05-23T11:51:26.490Z,24
2018-05-23T12:01:26.789Z,24
2018-05-23T12:11:26.797Z,24
2018-05-23T12:21:27.103Z,24
2018-05-23T12:31:27.485Z,24
2018-05-23T12:41:26.841Z,24
2018-05-23T12:51:26.780Z,24
2018-05-23T13:01:26.781Z,24
2018-05-23T13:11:28.699Z,25
2018-05-23T13:21:27.586Z,24
2018-05-23T13:31:26.505Z,24
2018-05-23T13:41:28.731Z,24
2018-05-23T13:51:27.135Z,24
2018-05-23T14:01:27.999Z,25
2018-05-23T14:11:32.383Z,25
2018-05-23T14:21:26.943Z,25
2018-05-23T14:31:31.069Z,25
2018-05-23T14:41:26.914Z,25
2018-05-23T14:51:27.278Z,25
2018-05-23T15:01:27.267Z,25
2018-05-23T15:11:27.050Z,25
2018-05-23T15:21:26.522Z,25
2018-05-23T15:31:27.640Z,25
2018-05-23T15:41:27.234Z,25
2018-05-23T15:51:27.187Z,25
2018-05-23T16:01:27.752Z,26
2018-05-23T16:11:27.235Z,27
2018-05-23T16:21:26.771Z,26
2018-05-23T16:31:27.322Z,26
2018-05-23T16:41:27.239Z,27
2018-05-23T16:51:29.757Z,27
2018-05-23T17:01:27.523Z,26
2018-05-23T17:11:26.802Z,26
2018-05-23T17:21:26.916Z,26
2018-05-23T17:31:26.986Z,26
2018-05-23T17:41:27.240Z,25
2018-05-23T17:51:29.367Z,24
2018-05-23T18:01:29.401Z,23
2018-05-23T18:11:27.635Z,23
2018-05-23T18:21:26.992Z,23
2018-05-23T18:31:27.690Z,23
2018-05-23T18:41:27.221Z,23
2018-05-23T18:51:26.180Z,23
2018-05-23T19:01:27.298Z,23
2018-05-23T19:11:26.916Z,22
2018-05-23T19:21:27.081Z,23
2018-05-23T19:31:27.273Z,22
2018-05-23T19:41:27.118Z,22
2018-05-23T19:51:27.514Z,22
2018-05-23T20:01:27.281Z,22
2018-05-23T20:11:26.383Z,22
2018-05-23T20:21:26.598Z,21
2018-05-23T20:31:27.871Z,22
2018-05-23T20:41:30.123Z,21
2018-05-23T20:51:27.081Z,21
2018-05-23T21:01:27.162Z,21
2018-05-23T21:11:29.085Z,20
2018-05-23T21:21:28.561Z,20
2018-05-23T21:31:27.333Z,21
2018-05-23T21:41:26.295Z,21
2018-05-23T21:51:27.402Z,20
2018-05-23T22:01:29.296Z,20
2018-05-23T22:11:30.031Z,20
2018-05-23T22:21:28.266Z,20
2018-05-23T22:31:27.276Z,20
2018-05-23T22:41:26.012Z,20
2018-05-23T22:51:29.422Z,20
2018-05-23T23:01:26.243Z,20
2018-05-23T23:11:28.398Z,19
2018-05-23T23:21:29.740Z,20
2018-05-23T23:31:28.305Z,20
2018-05-23T23:41:27.632Z,20
2018-05-23T23:51:26.692Z,20
